KCEF/CEF METAR and TAF weather

Enter ICAO airport designator
Station Type Date Time Source
KCEF METAR 2019/02/23 15:56 UTC NOAA

KCEF 231556Z 27003KT 10SM FEW150 BKN200 01/M08 A3046 RMK AO2A SLP324 T00051080


Station Type Date Time Source
KCEF Decoded METAR 2019/02/23 15:56 UTC NOAA

Chicopee Falls / Westover Air Force Base, MA, United States (KCEF) 42-12N 072-32W 75M
Feb 23, 2019 - 10:56 AM EST / 2019.02.23 1556 UTC
Wind: from the W (270 degrees) at 3 MPH (3 KT):0
Visibility: 10 mile(s):0
Sky conditions: mostly cloudy
Temperature: 32.9 F (0.5 C)
Dew Point: 17.6 F (-8.0 C)
Relative Humidity: 52%
Pressure (altimeter): 30.46 in. Hg (1031 hPa)
ob: KCEF 231556Z 27003KT 10SM FEW150 BKN200 01/M08 A3046 RMK AO2A SLP324 T00051080
cycle: 16

Station Type Date Time Source
KCEF TAF 2019/02/23 11:03 UTC NOAA

TAF TAF KCEF 231100Z 2311/2417 31007KT 9999 FEW035 SCT250 QNH3045INS
BECMG 2314/2315 20006KT 9999 FEW025 BKN250 QNH3027INS
BECMG 2403/2404 15006KT 9999 SCT015 OVC100 QNH3017INS
BECMG 2406/2407 09006KT 3200 -SNPL BR OVC007 660071 620179 QNH2998INS
BECMG 2410/2411 10006KT 6000 -FZRA BR OVC005 690001 QNH2974INS
BECMG 2413/2414 10006KT 4800 -RA OVC005 510204 QNH2955INS TX04/2319Z TNM08/2311Z


Example: see airport list